sensor_id;sensor_type;location;lat;lon;timestamp;P1;durP1;ratioP1;P2;durP2;ratioP2
40737;SDS011;54759;48.094;-1.628;2023-08-21T00:59:46;0.32;;;0.20;;
40737;SDS011;54759;48.094;-1.628;2023-08-21T01:02:49;0.10;;;0.10;;
40737;SDS011;54759;48.094;-1.628;2023-08-21T01:05:50;0.20;;;0.20;;
40737;SDS011;54759;48.094;-1.628;2023-08-21T01:08:53;0.65;;;0.20;;
40737;SDS011;54759;48.094;-1.628;2023-08-21T01:12:01;0.30;;;0.20;;
40737;SDS011;54759;48.094;-1.628;2023-08-21T01:15:12;0.15;;;0.15;;
40737;SDS011;54759;48.094;-1.628;2023-08-21T01:18:14;0.40;;;0.20;;
40737;SDS011;54759;48.094;-1.628;2023-08-21T01:21:17;0.50;;;0.30;;
40737;SDS011;54759;48.094;-1.628;2023-08-21T01:24:20;0.20;;;0.20;;
40737;SDS011;54759;48.094;-1.628;2023-08-21T01:27:22;0.40;;;0.15;;
40737;SDS011;54759;48.094;-1.628;2023-08-21T01:30:23;0.20;;;0.20;;
40737;SDS011;54759;48.094;-1.628;2023-08-21T01:33:26;0.50;;;0.28;;
40737;SDS011;54759;48.094;-1.628;2023-08-21T01:36:31;0.20;;;0.10;;
40737;SDS011;54759;48.094;-1.628;2023-08-21T01:39:34;0.20;;;0.20;;
40737;SDS011;54759;48.094;-1.628;2023-08-21T01:42:36;0.20;;;0.17;;
40737;SDS011;54759;48.094;-1.628;2023-08-21T01:45:41;0.70;;;0.30;;
40737;SDS011;54759;48.094;-1.628;2023-08-21T01:48:47;0.20;;;0.20;;
40737;SDS011;54759;48.094;-1.628;2023-08-21T01:51:49;0.13;;;0.10;;
40737;SDS011;54759;48.094;-1.628;2023-08-21T01:54:51;0.10;;;0.10;;
40737;SDS011;54759;48.094;-1.628;2023-08-21T01:57:52;0.10;;;0.10;;
40737;SDS011;54759;48.094;-1.628;2023-08-21T02:00:57;0.10;;;0.10;;
40737;SDS011;54759;48.094;-1.628;2023-08-21T02:04:00;0.47;;;0.20;;
40737;SDS011;54759;48.094;-1.628;2023-08-21T02:07:02;0.25;;;0.10;;
40737;SDS011;54759;48.094;-1.628;2023-08-21T02:10:05;0.60;;;0.20;;
40737;SDS011;54759;48.094;-1.628;2023-08-21T02:13:08;0.30;;;0.30;;
40737;SDS011;54759;48.094;-1.628;2023-08-21T02:16:09;0.73;;;0.20;;
40737;SDS011;54759;48.094;-1.628;2023-08-21T02:19:11;0.10;;;0.10;;
40737;SDS011;54759;48.094;-1.628;2023-08-21T02:22:12;0.28;;;0.20;;
40737;SDS011;54759;48.094;-1.628;2023-08-21T02:25:15;0.25;;;0.20;;
40737;SDS011;54759;48.094;-1.628;2023-08-21T02:28:16;0.10;;;0.10;;
40737;SDS011;54759;48.094;-1.628;2023-08-21T02:31:18;0.35;;;0.20;;
40737;SDS011;54759;48.094;-1.628;2023-08-21T02:34:20;0.10;;;0.10;;
40737;SDS011;54759;48.094;-1.628;2023-08-21T02:37:22;0.28;;;0.22;;
40737;SDS011;54759;48.094;-1.628;2023-08-21T02:40:24;0.10;;;0.10;;
40737;SDS011;54759;48.094;-1.628;2023-08-21T02:43:25;0.30;;;0.30;;
40737;SDS011;54759;48.094;-1.628;2023-08-21T02:46:28;0.17;;;0.17;;
40737;SDS011;54759;48.094;-1.628;2023-08-21T02:49:33;0.10;;;0.10;;
40737;SDS011;54759;48.094;-1.628;2023-08-21T02:52:35;0.50;;;0.20;;
40737;SDS011;54759;48.094;-1.628;2023-08-21T02:55:38;0.17;;;0.17;;
40737;SDS011;54759;48.094;-1.628;2023-08-21T02:58:39;0.25;;;0.10;;
40737;SDS011;54759;48.094;-1.628;2023-08-21T03:01:41;0.20;;;0.20;;
40737;SDS011;54759;48.094;-1.628;2023-08-21T03:04:43;0.10;;;0.10;;
40737;SDS011;54759;48.094;-1.628;2023-08-21T03:07:44;0.20;;;0.20;;
40737;SDS011;54759;48.094;-1.628;2023-08-21T03:10:46;0.10;;;0.10;;
40737;SDS011;54759;48.094;-1.628;2023-08-21T03:13:48;0.20;;;0.10;;
40737;SDS011;54759;48.094;-1.628;2023-08-21T03:16:51;0.20;;;0.20;;
40737;SDS011;54759;48.094;-1.628;2023-08-21T03:23:10;0.85;;;0.30;;
40737;SDS011;54759;48.094;-1.628;2023-08-21T03:26:11;0.50;;;0.20;;
40737;SDS011;54759;48.094;-1.628;2023-08-21T03:29:13;2.30;;;0.70;;
40737;SDS011;54759;48.094;-1.628;2023-08-21T03:32:15;1.95;;;0.25;;
40737;SDS011;54759;48.094;-1.628;2023-08-21T03:35:17;1.50;;;0.20;;
40737;SDS011;54759;48.094;-1.628;2023-08-21T03:38:20;0.95;;;0.30;;
40737;SDS011;54759;48.094;-1.628;2023-08-21T03:41:22;1.13;;;0.65;;
40737;SDS011;54759;48.094;-1.628;2023-08-21T03:44:23;0.47;;;0.20;;
40737;SDS011;54759;48.094;-1.628;2023-08-21T03:47:25;0.55;;;0.30;;
40737;SDS011;54759;48.094;-1.628;2023-08-21T03:50:37;2.05;;;0.32;;
40737;SDS011;54759;48.094;-1.628;2023-08-21T03:53:39;0.55;;;0.20;;
40737;SDS011;54759;48.094;-1.628;2023-08-21T03:56:43;0.75;;;0.22;;
40737;SDS011;54759;48.094;-1.628;2023-08-21T03:59:45;0.20;;;0.20;;
40737;SDS011;54759;48.094;-1.628;2023-08-21T04:02:47;0.43;;;0.32;;
40737;SDS011;54759;48.094;-1.628;2023-08-21T04:05:50;0.32;;;0.20;;
40737;SDS011;54759;48.094;-1.628;2023-08-21T04:08:52;0.40;;;0.25;;
40737;SDS011;54759;48.094;-1.628;2023-08-21T04:11:53;0.17;;;0.17;;
40737;SDS011;54759;48.094;-1.628;2023-08-21T04:14:55;0.20;;;0.20;;
40737;SDS011;54759;48.094;-1.628;2023-08-21T04:17:57;0.17;;;0.15;;
40737;SDS011;54759;48.094;-1.628;2023-08-21T04:20:58;1.05;;;0.20;;
40737;SDS011;54759;48.094;-1.628;2023-08-21T04:24:00;0.60;;;0.30;;
40737;SDS011;54759;48.094;-1.628;2023-08-21T04:27:02;0.20;;;0.10;;
40737;SDS011;54759;48.094;-1.628;2023-08-21T04:30:04;0.20;;;0.20;;
40737;SDS011;54759;48.094;-1.628;2023-08-21T04:33:09;0.32;;;0.28;;
40737;SDS011;54759;48.094;-1.628;2023-08-21T04:36:15;0.63;;;0.20;;
40737;SDS011;54759;48.094;-1.628;2023-08-21T04:39:23;0.10;;;0.10;;
40737;SDS011;54759;48.094;-1.628;2023-08-21T04:42:25;0.50;;;0.30;;
40737;SDS011;54759;48.094;-1.628;2023-08-21T04:45:27;0.20;;;0.17;;
40737;SDS011;54759;48.094;-1.628;2023-08-21T04:48:30;0.13;;;0.13;;
40737;SDS011;54759;48.094;-1.628;2023-08-21T04:51:31;0.20;;;0.20;;
40737;SDS011;54759;48.094;-1.628;2023-08-21T04:54:36;0.17;;;0.17;;
40737;SDS011;54759;48.094;-1.628;2023-08-21T04:57:38;0.15;;;0.10;;
40737;SDS011;54759;48.094;-1.628;2023-08-21T05:00:45;0.20;;;0.20;;
40737;SDS011;54759;48.094;-1.628;2023-08-21T05:03:47;0.20;;;0.20;;
40737;SDS011;54759;48.094;-1.628;2023-08-21T05:06:49;0.10;;;0.10;;
40737;SDS011;54759;48.094;-1.628;2023-08-21T05:09:52;0.30;;;0.25;;
40737;SDS011;54759;48.094;-1.628;2023-08-21T05:12:59;0.60;;;0.20;;
40737;SDS011;54759;48.094;-1.628;2023-08-21T05:16:01;0.20;;;0.20;;
40737;SDS011;54759;48.094;-1.628;2023-08-21T05:19:07;0.22;;;0.20;;
40737;SDS011;54759;48.094;-1.628;2023-08-21T05:22:09;0.10;;;0.10;;
40737;SDS011;54759;48.094;-1.628;2023-08-21T05:25:13;0.20;;;0.20;;
40737;SDS011;54759;48.094;-1.628;2023-08-21T05:28:15;0.28;;;0.28;;
40737;SDS011;54759;48.094;-1.628;2023-08-21T05:31:17;0.10;;;0.10;;
40737;SDS011;54759;48.094;-1.628;2023-08-21T05:34:28;0.17;;;0.17;;
40737;SDS011;54759;48.094;-1.628;2023-08-21T05:37:30;0.22;;;0.20;;
40737;SDS011;54759;48.094;-1.628;2023-08-21T05:40:32;0.20;;;0.20;;
40737;SDS011;54759;48.094;-1.628;2023-08-21T05:43:34;0.15;;;0.15;;
40737;SDS011;54759;48.094;-1.628;2023-08-21T05:46:37;0.10;;;0.10;;
40737;SDS011;54759;48.094;-1.628;2023-08-21T05:49:39;0.20;;;0.17;;
40737;SDS011;54759;48.094;-1.628;2023-08-21T05:52:41;0.17;;;0.17;;
40737;SDS011;54759;48.094;-1.628;2023-08-21T05:55:44;0.20;;;0.20;;
40737;SDS011;54759;48.094;-1.628;2023-08-21T05:58:46;0.10;;;0.10;;
40737;SDS011;54759;48.094;-1.628;2023-08-21T06:01:50;0.10;;;0.10;;
40737;SDS011;54759;48.094;-1.628;2023-08-21T06:04:52;0.32;;;0.32;;
40737;SDS011;54759;48.094;-1.628;2023-08-21T06:07:57;0.13;;;0.13;;
40737;SDS011;54759;48.094;-1.628;2023-08-21T06:10:59;1.17;;;0.40;;
40737;SDS011;54759;48.094;-1.628;2023-08-21T06:14:00;1.30;;;0.40;;
40737;SDS011;54759;48.094;-1.628;2023-08-21T06:17:05;0.73;;;0.57;;
40737;SDS011;54759;48.094;-1.628;2023-08-21T06:20:07;0.82;;;0.60;;
40737;SDS011;54759;48.094;-1.628;2023-08-21T06:23:10;0.60;;;0.32;;
40737;SDS011;54759;48.094;-1.628;2023-08-21T06:26:12;0.60;;;0.40;;
40737;SDS011;54759;48.094;-1.628;2023-08-21T06:29:15;0.50;;;0.40;;
40737;SDS011;54759;48.094;-1.628;2023-08-21T06:32:17;0.65;;;0.60;;
40737;SDS011;54759;48.094;-1.628;2023-08-21T06:35:22;0.88;;;0.50;;
40737;SDS011;54759;48.094;-1.628;2023-08-21T06:38:25;0.40;;;0.30;;
40737;SDS011;54759;48.094;-1.628;2023-08-21T06:41:28;1.15;;;0.40;;
40737;SDS011;54759;48.094;-1.628;2023-08-21T06:44:32;0.75;;;0.30;;
40737;SDS011;54759;48.094;-1.628;2023-08-21T06:47:33;3.58;;;0.70;;
40737;SDS011;54759;48.094;-1.628;2023-08-21T06:50:36;1.73;;;0.50;;
40737;SDS011;54759;48.094;-1.628;2023-08-21T06:53:40;2.38;;;0.60;;
40737;SDS011;54759;48.094;-1.628;2023-08-21T06:56:42;2.22;;;0.70;;
40737;SDS011;54759;48.094;-1.628;2023-08-21T06:59:44;1.58;;;0.45;;
40737;SDS011;54759;48.094;-1.628;2023-08-21T07:02:45;4.57;;;0.70;;
40737;SDS011;54759;48.094;-1.628;2023-08-21T07:05:52;1.58;;;0.60;;
40737;SDS011;54759;48.094;-1.628;2023-08-21T07:08:56;1.92;;;0.80;;
40737;SDS011;54759;48.094;-1.628;2023-08-21T07:11:58;1.52;;;0.50;;
40737;SDS011;54759;48.094;-1.628;2023-08-21T07:14:59;1.65;;;0.70;;
40737;SDS011;54759;48.094;-1.628;2023-08-21T07:18:06;1.05;;;0.68;;
40737;SDS011;54759;48.094;-1.628;2023-08-21T07:27:23;2.40;;;0.80;;
40737;SDS011;54759;48.094;-1.628;2023-08-21T07:30:25;2.63;;;0.70;;
40737;SDS011;54759;48.094;-1.628;2023-08-21T07:33:28;2.63;;;0.98;;
40737;SDS011;54759;48.094;-1.628;2023-08-21T07:36:31;4.50;;;1.23;;
40737;SDS011;54759;48.094;-1.628;2023-08-21T07:42:57;3.33;;;0.90;;
40737;SDS011;54759;48.094;-1.628;2023-08-21T07:46:02;2.45;;;0.93;;
40737;SDS011;54759;48.094;-1.628;2023-08-21T07:49:04;4.28;;;1.00;;
40737;SDS011;54759;48.094;-1.628;2023-08-21T07:52:05;2.28;;;0.90;;
40737;SDS011;54759;48.094;-1.628;2023-08-21T07:55:07;2.63;;;1.48;;
40737;SDS011;54759;48.094;-1.628;2023-08-21T07:58:10;5.72;;;1.25;;
40737;SDS011;54759;48.094;-1.628;2023-08-21T08:01:11;3.75;;;1.38;;
40737;SDS011;54759;48.094;-1.628;2023-08-21T08:04:13;4.20;;;0.75;;
40737;SDS011;54759;48.094;-1.628;2023-08-21T08:07:17;3.40;;;1.05;;
40737;SDS011;54759;48.094;-1.628;2023-08-21T08:10:19;5.60;;;1.10;;
40737;SDS011;54759;48.094;-1.628;2023-08-21T08:13:21;4.80;;;1.23;;
40737;SDS011;54759;48.094;-1.628;2023-08-21T08:16:22;2.60;;;0.75;;
40737;SDS011;54759;48.094;-1.628;2023-08-21T08:19:27;4.18;;;1.10;;
40737;SDS011;54759;48.094;-1.628;2023-08-21T08:22:29;4.10;;;0.82;;
40737;SDS011;54759;48.094;-1.628;2023-08-21T08:25:30;2.65;;;1.40;;
40737;SDS011;54759;48.094;-1.628;2023-08-21T08:28:34;4.95;;;1.20;;
40737;SDS011;54759;48.094;-1.628;2023-08-21T08:31:36;3.03;;;1.00;;
40737;SDS011;54759;48.094;-1.628;2023-08-21T08:34:42;3.75;;;0.73;;
40737;SDS011;54759;48.094;-1.628;2023-08-21T08:37:47;1.95;;;0.50;;
40737;SDS011;54759;48.094;-1.628;2023-08-21T08:40:48;0.90;;;0.50;;
40737;SDS011;54759;48.094;-1.628;2023-08-21T08:43:53;2.28;;;1.02;;
40737;SDS011;54759;48.094;-1.628;2023-08-21T08:46:57;0.75;;;0.47;;
40737;SDS011;54759;48.094;-1.628;2023-08-21T08:50:01;0.70;;;0.43;;
40737;SDS011;54759;48.094;-1.628;2023-08-21T08:53:07;3.53;;;0.50;;
40737;SDS011;54759;48.094;-1.628;2023-08-21T08:56:17;1.35;;;0.30;;
40737;SDS011;54759;48.094;-1.628;2023-08-21T08:59:19;1.15;;;0.52;;
40737;SDS011;54759;48.094;-1.628;2023-08-21T09:02:21;3.15;;;0.60;;
40737;SDS011;54759;48.094;-1.628;2023-08-21T09:05:23;0.65;;;0.38;;
40737;SDS011;54759;48.094;-1.628;2023-08-21T09:08:25;0.55;;;0.30;;
40737;SDS011;54759;48.094;-1.628;2023-08-21T09:11:26;0.88;;;0.30;;
40737;SDS011;54759;48.094;-1.628;2023-08-21T09:14:29;0.63;;;0.30;;
40737;SDS011;54759;48.094;-1.628;2023-08-21T09:17:32;0.40;;;0.32;;
40737;SDS011;54759;48.094;-1.628;2023-08-21T09:20:34;0.35;;;0.20;;
40737;SDS011;54759;48.094;-1.628;2023-08-21T09:23:36;1.58;;;0.30;;
40737;SDS011;54759;48.094;-1.628;2023-08-21T09:26:38;0.63;;;0.40;;
40737;SDS011;54759;48.094;-1.628;2023-08-21T09:29:41;0.93;;;0.47;;
40737;SDS011;54759;48.094;-1.628;2023-08-21T09:32:53;2.03;;;0.90;;
40737;SDS011;54759;48.094;-1.628;2023-08-21T09:35:55;0.95;;;0.45;;
40737;SDS011;54759;48.094;-1.628;2023-08-21T09:38:57;0.90;;;0.50;;
40737;SDS011;54759;48.094;-1.628;2023-08-21T09:41:59;1.58;;;0.60;;
40737;SDS011;54759;48.094;-1.628;2023-08-21T09:45:02;1.88;;;0.60;;
40737;SDS011;54759;48.094;-1.628;2023-08-21T09:48:06;0.40;;;0.40;;
40737;SDS011;54759;48.094;-1.628;2023-08-21T09:51:08;1.02;;;0.40;;
40737;SDS011;54759;48.094;-1.628;2023-08-21T09:54:10;0.60;;;0.32;;
40737;SDS011;54759;48.094;-1.628;2023-08-21T09:57:12;1.45;;;0.40;;
40737;SDS011;54759;48.094;-1.628;2023-08-21T10:00:15;1.02;;;0.30;;
40737;SDS011;54759;48.094;-1.628;2023-08-21T10:03:20;0.77;;;0.30;;
40737;SDS011;54759;48.094;-1.628;2023-08-21T10:06:23;1.42;;;0.40;;
40737;SDS011;54759;48.094;-1.628;2023-08-21T10:09:26;0.80;;;0.38;;
40737;SDS011;54759;48.094;-1.628;2023-08-21T10:12:29;1.42;;;0.35;;
40737;SDS011;54759;48.094;-1.628;2023-08-21T10:15:32;0.68;;;0.30;;
40737;SDS011;54759;48.094;-1.628;2023-08-21T10:18:36;0.85;;;0.40;;
40737;SDS011;54759;48.094;-1.628;2023-08-21T10:21:38;0.63;;;0.38;;
40737;SDS011;54759;48.094;-1.628;2023-08-21T10:24:40;0.68;;;0.30;;
40737;SDS011;54759;48.094;-1.628;2023-08-21T10:27:42;1.20;;;0.20;;
40737;SDS011;54759;48.094;-1.628;2023-08-21T10:30:44;0.52;;;0.30;;
40737;SDS011;54759;48.094;-1.628;2023-08-21T10:33:47;0.70;;;0.30;;
40737;SDS011;54759;48.094;-1.628;2023-08-21T10:40:08;0.65;;;0.30;;
40737;SDS011;54759;48.094;-1.628;2023-08-21T10:49:52;0.30;;;0.28;;
40737;SDS011;54759;48.094;-1.628;2023-08-21T10:52:55;1.00;;;0.30;;
40737;SDS011;54759;48.094;-1.628;2023-08-21T10:55:56;0.95;;;0.47;;
40737;SDS011;54759;48.094;-1.628;2023-08-21T10:59:01;0.85;;;0.30;;
40737;SDS011;54759;48.094;-1.628;2023-08-21T11:02:04;0.57;;;0.30;;
40737;SDS011;54759;48.094;-1.628;2023-08-21T11:05:06;0.47;;;0.30;;
40737;SDS011;54759;48.094;-1.628;2023-08-21T11:08:09;0.95;;;0.40;;
40737;SDS011;54759;48.094;-1.628;2023-08-21T11:11:10;0.47;;;0.20;;
40737;SDS011;54759;48.094;-1.628;2023-08-21T11:14:12;0.40;;;0.30;;
40737;SDS011;54759;48.094;-1.628;2023-08-21T11:17:15;0.30;;;0.20;;
40737;SDS011;54759;48.094;-1.628;2023-08-21T11:20:21;0.28;;;0.28;;
40737;SDS011;54759;48.094;-1.628;2023-08-21T11:23:32;0.60;;;0.30;;
40737;SDS011;54759;48.094;-1.628;2023-08-21T11:26:34;0.30;;;0.20;;
40737;SDS011;54759;48.094;-1.628;2023-08-21T11:29:37;0.63;;;0.20;;
40737;SDS011;54759;48.094;-1.628;2023-08-21T11:32:40;0.50;;;0.20;;
40737;SDS011;54759;48.094;-1.628;2023-08-21T12:01:10;0.32;;;0.20;;
40737;SDS011;54759;48.094;-1.628;2023-08-21T12:04:15;0.85;;;0.60;;
40737;SDS011;54759;48.094;-1.628;2023-08-21T12:07:16;0.20;;;0.20;;
40737;SDS011;54759;48.094;-1.628;2023-08-21T12:10:22;1.95;;;0.17;;
40737;SDS011;54759;48.094;-1.628;2023-08-21T12:13:24;0.25;;;0.17;;
40737;SDS011;54759;48.094;-1.628;2023-08-21T12:16:28;0.75;;;0.35;;
40737;SDS011;54759;48.094;-1.628;2023-08-21T12:19:32;0.28;;;0.20;;
40737;SDS011;54759;48.094;-1.628;2023-08-21T12:22:33;0.10;;;0.10;;
40737;SDS011;54759;48.094;-1.628;2023-08-21T12:25:35;0.30;;;0.20;;
40737;SDS011;54759;48.094;-1.628;2023-08-21T12:28:36;0.88;;;0.20;;
40737;SDS011;54759;48.094;-1.628;2023-08-21T12:31:38;1.23;;;0.20;;
40737;SDS011;54759;48.094;-1.628;2023-08-21T12:34:42;1.75;;;0.22;;
40737;SDS011;54759;48.094;-1.628;2023-08-21T12:41:21;0.93;;;0.30;;
40737;SDS011;54759;48.094;-1.628;2023-08-21T12:44:22;0.20;;;0.20;;
40737;SDS011;54759;48.094;-1.628;2023-08-21T12:47:24;0.52;;;0.30;;
40737;SDS011;54759;48.094;-1.628;2023-08-21T12:50:26;1.17;;;0.20;;
40737;SDS011;54759;48.094;-1.628;2023-08-21T13:08:03;2.33;;;0.40;;
40737;SDS011;54759;48.094;-1.628;2023-08-21T13:11:05;0.68;;;0.40;;
40737;SDS011;54759;48.094;-1.628;2023-08-21T13:14:06;0.63;;;0.40;;
40737;SDS011;54759;48.094;-1.628;2023-08-21T13:17:08;0.50;;;0.30;;
40737;SDS011;54759;48.094;-1.628;2023-08-21T13:20:12;0.80;;;0.30;;
40737;SDS011;54759;48.094;-1.628;2023-08-21T13:23:17;0.65;;;0.45;;
40737;SDS011;54759;48.094;-1.628;2023-08-21T13:37:12;0.38;;;0.30;;
40737;SDS011;54759;48.094;-1.628;2023-08-21T13:40:14;0.30;;;0.30;;
40737;SDS011;54759;48.094;-1.628;2023-08-21T13:43:17;0.65;;;0.30;;
40737;SDS011;54759;48.094;-1.628;2023-08-21T13:46:21;0.17;;;0.17;;
40737;SDS011;54759;48.094;-1.628;2023-08-21T13:49:23;0.40;;;0.28;;
40737;SDS011;54759;48.094;-1.628;2023-08-21T13:52:25;0.40;;;0.20;;
40737;SDS011;54759;48.094;-1.628;2023-08-21T13:55:27;0.45;;;0.30;;
40737;SDS011;54759;48.094;-1.628;2023-08-21T13:58:29;0.30;;;0.22;;
40737;SDS011;54759;48.094;-1.628;2023-08-21T14:01:30;0.50;;;0.20;;
40737;SDS011;54759;48.094;-1.628;2023-08-21T14:04:33;0.32;;;0.20;;
40737;SDS011;54759;48.094;-1.628;2023-08-21T14:07:35;0.32;;;0.20;;
40737;SDS011;54759;48.094;-1.628;2023-08-21T14:10:38;2.05;;;0.20;;
40737;SDS011;54759;48.094;-1.628;2023-08-21T14:13:40;0.70;;;0.43;;
40737;SDS011;54759;48.094;-1.628;2023-08-21T14:16:43;0.25;;;0.20;;
40737;SDS011;54759;48.094;-1.628;2023-08-21T14:19:44;0.60;;;0.20;;
40737;SDS011;54759;48.094;-1.628;2023-08-21T14:22:46;0.40;;;0.40;;
40737;SDS011;54759;48.094;-1.628;2023-08-21T14:25:49;0.25;;;0.25;;
40737;SDS011;54759;48.094;-1.628;2023-08-21T14:28:53;0.30;;;0.30;;
40737;SDS011;54759;48.094;-1.628;2023-08-21T14:31:55;0.85;;;0.30;;
40737;SDS011;54759;48.094;-1.628;2023-08-21T14:34:58;0.22;;;0.20;;
40737;SDS011;54759;48.094;-1.628;2023-08-21T14:38:00;0.40;;;0.22;;
40737;SDS011;54759;48.094;-1.628;2023-08-21T14:41:02;1.00;;;0.30;;
40737;SDS011;54759;48.094;-1.628;2023-08-21T14:44:04;0.20;;;0.17;;
40737;SDS011;54759;48.094;-1.628;2023-08-21T14:47:06;0.20;;;0.10;;
40737;SDS011;54759;48.094;-1.628;2023-08-21T14:50:09;0.40;;;0.20;;
40737;SDS011;54759;48.094;-1.628;2023-08-21T14:53:11;0.20;;;0.20;;
40737;SDS011;54759;48.094;-1.628;2023-08-21T14:56:13;0.38;;;0.20;;
40737;SDS011;54759;48.094;-1.628;2023-08-21T14:59:14;0.10;;;0.10;;
40737;SDS011;54759;48.094;-1.628;2023-08-21T15:02:16;0.28;;;0.13;;
40737;SDS011;54759;48.094;-1.628;2023-08-21T15:05:20;1.65;;;0.22;;
40737;SDS011;54759;48.094;-1.628;2023-08-21T15:08:22;0.20;;;0.20;;
40737;SDS011;54759;48.094;-1.628;2023-08-21T15:11:25;0.55;;;0.28;;
40737;SDS011;54759;48.094;-1.628;2023-08-21T15:14:27;0.55;;;0.20;;
40737;SDS011;54759;48.094;-1.628;2023-08-21T15:17:30;0.20;;;0.20;;
40737;SDS011;54759;48.094;-1.628;2023-08-21T15:20:32;0.38;;;0.15;;
40737;SDS011;54759;48.094;-1.628;2023-08-21T15:23:36;0.35;;;0.30;;
40737;SDS011;54759;48.094;-1.628;2023-08-21T15:30:18;0.43;;;0.20;;
40737;SDS011;54759;48.094;-1.628;2023-08-21T15:33:22;0.20;;;0.20;;
40737;SDS011;54759;48.094;-1.628;2023-08-21T15:36:26;0.10;;;0.10;;
40737;SDS011;54759;48.094;-1.628;2023-08-21T15:39:27;0.40;;;0.28;;
40737;SDS011;54759;48.094;-1.628;2023-08-21T15:46:07;0.20;;;0.10;;
40737;SDS011;54759;48.094;-1.628;2023-08-21T15:49:12;0.20;;;0.20;;
40737;SDS011;54759;48.094;-1.628;2023-08-21T15:52:14;0.63;;;0.40;;
